createdAt,value
2023-03-06T00:02:42.031Z,11.50
2023-03-06T00:05:44.878Z,11.53
2023-03-06T00:08:47.529Z,12.30
2023-03-06T00:11:50.111Z,10.90
2023-03-06T00:14:52.681Z,11.40
2023-03-06T00:17:56.538Z,10.57
2023-03-06T00:20:59.319Z,11.83
2023-03-06T00:24:01.929Z,11.50
2023-03-06T00:27:04.756Z,11.60
2023-03-06T00:30:14.237Z,10.63
2023-03-06T00:33:17.993Z,10.67
2023-03-06T00:36:20.756Z,11.00
2023-03-06T00:39:23.683Z,10.48
2023-03-06T00:42:26.146Z,11.10
2023-03-06T00:45:28.847Z,11.35
2023-03-06T00:48:33.119Z,12.47
2023-03-06T00:51:35.712Z,11.63
2023-03-06T00:54:38.349Z,11.60
2023-03-06T00:57:41.003Z,11.63
2023-03-06T01:00:43.851Z,11.32
2023-03-06T01:03:46.426Z,10.73
2023-03-06T01:06:49.491Z,11.97
2023-03-06T01:09:52.036Z,11.20
2023-03-06T01:12:55.166Z,11.55
2023-03-06T01:16:06.965Z,11.65
2023-03-06T01:19:09.813Z,11.77
2023-03-06T01:22:12.408Z,11.83
2023-03-06T01:25:15.114Z,12.13
2023-03-06T01:28:18.487Z,12.70
2023-03-06T01:31:21.038Z,12.10
2023-03-06T01:34:23.682Z,13.53
2023-03-06T01:37:26.202Z,13.43
2023-03-06T01:40:31.899Z,13.82
2023-03-06T01:43:39.564Z,13.23
2023-03-06T01:46:43.904Z,14.27
2023-03-06T01:49:46.435Z,13.80
2023-03-06T01:52:52.610Z,12.70
2023-03-06T01:55:55.423Z,13.25
2023-03-06T01:58:58.519Z,12.88
2023-03-06T02:02:02.971Z,13.27
2023-03-06T02:05:06.954Z,13.43
2023-03-06T02:08:14.987Z,13.90
2023-03-06T02:11:20.627Z,14.13
2023-03-06T02:14:23.551Z,14.10
2023-03-06T02:17:27.097Z,12.93
2023-03-06T02:20:38.249Z,12.63
2023-03-06T02:23:48.147Z,12.13
2023-03-06T02:26:51.468Z,12.88
2023-03-06T02:29:55.001Z,12.25
2023-03-06T02:32:58.394Z,12.63
2023-03-06T02:36:04.106Z,12.67
2023-03-06T02:39:06.956Z,12.40
2023-03-06T02:42:10.628Z,13.23
2023-03-06T02:45:14.318Z,11.65
2023-03-06T02:48:18.579Z,13.45
2023-03-06T02:51:21.872Z,13.47
2023-03-06T02:54:25.339Z,13.53
2023-03-06T02:57:27.875Z,12.82
2023-03-06T03:00:32.885Z,11.40
2023-03-06T03:03:38.206Z,10.63
2023-03-06T03:06:41.058Z,9.57
2023-03-06T03:09:43.724Z,10.07
2023-03-06T03:12:46.647Z,10.13
2023-03-06T03:16:11.389Z,9.73
2023-03-06T03:19:14.446Z,9.40
2023-03-06T03:22:19.063Z,9.73
2023-03-06T03:25:25.278Z,10.07
2023-03-06T03:28:30.709Z,10.60
2023-03-06T03:31:33.447Z,10.88
2023-03-06T03:34:37.537Z,11.07
2023-03-06T03:37:41.714Z,10.47
2023-03-06T03:40:44.964Z,11.03
2023-03-06T03:43:47.797Z,11.32
2023-03-06T03:46:50.933Z,10.43
2023-03-06T03:49:57.110Z,11.35
2023-03-06T03:53:00.657Z,10.60
2023-03-06T03:56:04.006Z,10.90
2023-03-06T03:59:08.994Z,9.60
2023-03-06T04:02:18.431Z,10.48
2023-03-06T04:05:28.798Z,9.63
2023-03-06T04:08:32.012Z,11.77
2023-03-06T04:11:34.556Z,11.57
2023-03-06T04:14:37.202Z,10.45
2023-03-06T04:17:40.428Z,10.60
2023-03-06T04:20:48.217Z,10.68
2023-03-06T04:23:50.914Z,10.50
2023-03-06T04:26:53.617Z,9.93
2023-03-06T04:29:56.586Z,9.70
2023-03-06T04:32:59.565Z,9.70
2023-03-06T04:36:02.833Z,10.07
2023-03-06T04:39:07.774Z,13.90
2023-03-06T04:42:10.867Z,10.87
2023-03-06T04:45:13.925Z,14.80
2023-03-06T04:48:18.374Z,18.90
2023-03-06T04:51:21.239Z,14.80
2023-03-06T04:54:23.734Z,17.47
2023-03-06T04:57:26.352Z,10.80
2023-03-06T05:00:32.131Z,10.00
2023-03-06T05:03:34.858Z,9.75
2023-03-06T05:06:37.403Z,10.60
2023-03-06T05:09:40.001Z,10.50
2023-03-06T05:12:42.896Z,10.27
2023-03-06T05:15:45.439Z,12.18
2023-03-06T05:18:50.509Z,11.20
2023-03-06T05:21:53.276Z,9.68
2023-03-06T05:24:55.899Z,9.73
2023-03-06T05:27:58.575Z,8.50
2023-03-06T05:31:03.404Z,9.80
2023-03-06T05:34:06.049Z,10.07
2023-03-06T05:37:08.971Z,9.80
2023-03-06T05:40:12.229Z,9.90
2023-03-06T05:43:14.838Z,10.07
2023-03-06T05:46:17.421Z,9.85
2023-03-06T05:49:20.024Z,10.05
2023-03-06T05:52:22.719Z,9.93
2023-03-06T05:55:25.466Z,10.70
2023-03-06T05:58:28.943Z,9.63
2023-03-06T06:01:31.645Z,10.10
2023-03-06T06:04:34.354Z,8.88
2023-03-06T06:07:37.002Z,9.95
2023-03-06T06:10:43.943Z,9.43
2023-03-06T06:13:48.564Z,8.17
2023-03-06T06:16:51.216Z,9.15
2023-03-06T06:19:53.812Z,10.23
2023-03-06T06:22:56.412Z,9.30
2023-03-06T06:26:04.133Z,9.93
2023-03-06T06:29:06.819Z,9.10
2023-03-06T06:32:09.449Z,8.45
2023-03-06T06:35:12.081Z,9.35
2023-03-06T06:38:14.690Z,8.98
2023-03-06T06:44:39.897Z,9.00
2023-03-06T06:47:43.311Z,10.80
2023-03-06T06:50:46.249Z,12.75
2023-03-06T06:53:52.125Z,12.45
2023-03-06T06:56:54.888Z,10.37
2023-03-06T06:59:57.467Z,9.57
2023-03-06T07:03:00.147Z,9.35
2023-03-06T07:06:03.031Z,9.82
2023-03-06T07:09:05.888Z,9.68
2023-03-06T07:12:08.814Z,8.20
2023-03-06T07:15:15.940Z,10.60
2023-03-06T07:18:21.180Z,9.80
2023-03-06T07:21:23.804Z,9.18
2023-03-06T07:24:26.829Z,9.75
2023-03-06T07:27:29.488Z,9.33
2023-03-06T07:30:32.130Z,8.60
2023-03-06T07:33:34.729Z,9.70
2023-03-06T07:36:37.243Z,9.25
2023-03-06T07:39:39.855Z,9.60
2023-03-06T07:42:42.471Z,8.17
2023-03-06T07:45:56.431Z,8.47
2023-03-06T07:48:59.181Z,8.32
2023-03-06T07:52:04.865Z,7.78
2023-03-06T07:55:08.203Z,8.48
2023-03-06T07:58:11.204Z,8.50
2023-03-06T08:01:17.310Z,8.50
2023-03-06T08:04:19.938Z,8.13
2023-03-06T08:07:23.396Z,8.70
2023-03-06T08:10:26.132Z,7.50
2023-03-06T08:13:28.812Z,7.63
2023-03-06T08:16:31.682Z,9.53
2023-03-06T08:19:34.478Z,8.70
2023-03-06T08:22:37.294Z,10.18
2023-03-06T08:25:39.977Z,8.15
2023-03-06T08:28:43.276Z,8.20
2023-03-06T08:31:46.984Z,7.10
2023-03-06T08:34:49.724Z,8.65
2023-03-06T08:37:52.324Z,9.13
2023-03-06T08:40:54.979Z,9.40
2023-03-06T08:43:57.933Z,7.97
2023-03-06T08:47:00.610Z,8.73
2023-03-06T08:50:04.011Z,8.95
2023-03-06T08:53:06.629Z,8.50
2023-03-06T08:56:19.402Z,9.25
2023-03-06T08:59:22.470Z,8.33
2023-03-06T09:02:25.395Z,9.40
2023-03-06T09:05:28.227Z,8.85
2023-03-06T09:08:30.889Z,9.05
2023-03-06T09:11:34.487Z,10.00
2023-03-06T09:14:37.453Z,9.67
2023-03-06T09:17:40.567Z,8.23
2023-03-06T09:20:43.241Z,8.93
2023-03-06T09:23:45.911Z,8.30
2023-03-06T09:26:51.440Z,8.02
2023-03-06T09:29:57.957Z,8.13
2023-03-06T09:33:01.272Z,7.97
2023-03-06T09:36:04.882Z,9.00
2023-03-06T09:39:07.861Z,9.60
2023-03-06T09:42:20.348Z,10.65
2023-03-06T09:45:22.973Z,10.47
2023-03-06T09:48:39.293Z,9.33
2023-03-06T09:52:23.613Z,8.60
2023-03-06T09:55:29.133Z,10.15
2023-03-06T09:59:04.638Z,8.73
2023-03-06T10:02:24.559Z,7.87
2023-03-06T10:05:33.065Z,7.90
2023-03-06T10:08:41.534Z,8.45
2023-03-06T10:11:53.073Z,8.95
2023-03-06T10:15:03.256Z,9.35
2023-03-06T10:18:05.894Z,10.33
2023-03-06T10:21:21.486Z,9.37
2023-03-06T10:24:30.571Z,8.65
2023-03-06T10:27:58.018Z,8.88
2023-03-06T10:31:15.502Z,8.85
2023-03-06T10:34:28.539Z,8.90
2023-03-06T10:37:32.577Z,8.73
2023-03-06T10:40:42.224Z,9.40
2023-03-06T10:44:05.579Z,9.80
2023-03-06T10:47:27.728Z,8.68
2023-03-06T10:50:31.534Z,9.17
2023-03-06T10:53:34.513Z,10.10
2023-03-06T10:56:39.948Z,8.93
2023-03-06T11:00:00.402Z,8.90
2023-03-06T11:03:16.403Z,10.00
2023-03-06T11:06:34.768Z,8.83
2023-03-06T11:09:37.492Z,9.83
2023-03-06T11:12:41.542Z,9.57
2023-03-06T11:16:01.979Z,9.52
2023-03-06T11:19:17.781Z,10.85
2023-03-06T11:22:20.363Z,9.63
2023-03-06T11:25:28.200Z,9.20
2023-03-06T11:28:33.925Z,10.35
2023-03-06T11:32:07.182Z,11.40
2023-03-06T11:35:13.904Z,10.40
2023-03-06T11:38:32.324Z,10.43
2023-03-06T11:41:54.355Z,10.20
2023-03-06T11:45:16.071Z,9.88
2023-03-06T11:48:23.809Z,10.65
2023-03-06T11:51:34.756Z,10.40
2023-03-06T11:54:37.434Z,9.97
2023-03-06T11:58:01.314Z,11.50
2023-03-06T12:01:13.755Z,10.25
2023-03-06T12:04:41.527Z,10.18
2023-03-06T12:07:53.150Z,10.05
2023-03-06T12:11:10.625Z,10.20
2023-03-06T12:14:20.445Z,9.47
2023-03-06T12:17:43.014Z,10.15
2023-03-06T12:21:00.904Z,8.88
2023-03-06T12:24:21.633Z,9.57
2023-03-06T12:27:54.219Z,9.47
2023-03-06T12:31:16.006Z,9.43
2023-03-06T12:34:26.691Z,9.50
2023-03-06T12:38:09.471Z,9.23
2023-03-06T12:41:32.143Z,9.20
2023-03-06T12:45:12.016Z,8.83
2023-03-06T12:48:25.923Z,9.90
2023-03-06T12:51:29.256Z,9.18
2023-03-06T12:54:36.297Z,10.13
2023-03-06T12:57:38.872Z,9.52
2023-03-06T13:01:05.007Z,9.20
2023-03-06T13:04:13.416Z,10.10
2023-03-06T13:07:34.019Z,10.20
2023-03-06T13:10:39.670Z,11.10
2023-03-06T13:13:44.217Z,10.98
2023-03-06T13:16:47.036Z,10.20
2023-03-06T13:19:58.495Z,10.57
2023-03-06T13:23:32.125Z,10.90
2023-03-06T13:26:34.932Z,9.93
2023-03-06T13:29:37.548Z,11.98
2023-03-06T13:32:40.335Z,12.03
2023-03-06T13:35:42.906Z,10.63
2023-03-06T13:38:45.492Z,12.13
2023-03-06T13:42:00.220Z,10.93
2023-03-06T13:45:25.727Z,12.98
2023-03-06T13:48:45.168Z,10.47
2023-03-06T13:51:54.277Z,10.00
2023-03-06T13:55:18.075Z,12.43
2023-03-06T13:58:26.652Z,14.48
2023-03-06T14:01:53.957Z,12.32
2023-03-06T14:05:03.570Z,12.80
2023-03-06T14:08:15.374Z,13.83
2023-03-06T14:11:21.543Z,12.38
2023-03-06T14:14:32.140Z,13.60
2023-03-06T14:17:38.187Z,11.68
2023-03-06T14:20:43.809Z,11.70
2023-03-06T14:23:47.322Z,12.40
2023-03-06T14:26:51.951Z,13.82
2023-03-06T14:30:09.288Z,18.38
2023-03-06T14:33:12.278Z,14.15
2023-03-06T14:36:18.004Z,11.23
2023-03-06T14:39:21.371Z,11.07
2023-03-06T14:42:28.878Z,10.80
2023-03-06T14:45:31.409Z,11.20
2023-03-06T14:48:44.547Z,11.57
2023-03-06T14:51:53.172Z,10.93
2023-03-06T14:54:55.781Z,11.90
2023-03-06T14:57:59.844Z,12.48
2023-03-06T15:01:06.244Z,11.85
2023-03-06T15:04:31.957Z,12.18
2023-03-06T15:07:35.411Z,16.33
2023-03-06T15:10:38.930Z,14.07
2023-03-06T15:13:41.555Z,15.27
2023-03-06T15:16:44.188Z,15.93
2023-03-06T15:19:48.778Z,11.80
2023-03-06T15:22:51.476Z,11.40
2023-03-06T15:25:55.631Z,12.23
2023-03-06T15:29:09.617Z,14.95
2023-03-06T15:32:29.589Z,13.90
2023-03-06T15:35:37.876Z,14.88
2023-03-06T15:38:43.379Z,14.03
2023-03-06T15:41:45.954Z,14.43
2023-03-06T15:44:53.118Z,35.33
2023-03-06T15:47:56.067Z,28.70
2023-03-06T15:50:58.692Z,13.27
2023-03-06T15:54:11.891Z,15.27
2023-03-06T15:57:25.302Z,15.77
2023-03-06T16:00:38.617Z,14.90
2023-03-06T16:03:41.174Z,14.52
2023-03-06T16:06:47.017Z,13.18
2023-03-06T16:09:49.626Z,11.47
2023-03-06T16:12:57.577Z,10.63
2023-03-06T16:16:00.214Z,12.65
2023-03-06T16:19:06.044Z,19.08
2023-03-06T16:22:10.554Z,28.00
2023-03-06T16:25:14.493Z,20.67
2023-03-06T16:28:17.671Z,17.83
2023-03-06T16:31:20.278Z,30.85
2023-03-06T16:34:23.428Z,20.52
2023-03-06T16:37:26.089Z,23.52
2023-03-06T16:40:37.733Z,24.33
2023-03-06T16:43:40.518Z,25.83
2023-03-06T16:46:46.026Z,26.98
2023-03-06T16:49:49.042Z,28.42
2023-03-06T16:52:53.032Z,30.42
2023-03-06T16:55:55.667Z,35.67
2023-03-06T16:58:58.433Z,28.53
2023-03-06T17:02:01.080Z,21.70
2023-03-06T17:05:04.709Z,19.38
2023-03-06T17:08:07.284Z,20.95
2023-03-06T17:11:09.847Z,40.93
2023-03-06T17:14:12.960Z,40.93
2023-03-06T17:17:17.238Z,38.15
2023-03-06T17:20:20.669Z,24.10
2023-03-06T17:23:28.816Z,28.73
2023-03-06T17:26:31.478Z,21.37
2023-03-06T17:29:34.193Z,19.83
2023-03-06T17:32:38.399Z,30.73
2023-03-06T17:35:41.032Z,33.75
2023-03-06T17:38:43.909Z,26.63
2023-03-06T17:41:46.611Z,25.87
2023-03-06T17:44:49.337Z,54.30
2023-03-06T17:47:55.920Z,146.95
2023-03-06T17:50:58.987Z,83.70
2023-03-06T17:54:01.921Z,47.67
2023-03-06T17:57:05.833Z,30.07
2023-03-06T18:00:09.582Z,23.90
2023-03-06T18:03:15.084Z,17.98
2023-03-06T18:06:18.799Z,20.95
2023-03-06T18:09:21.395Z,26.50
2023-03-06T18:12:24.181Z,43.07
2023-03-06T18:15:26.876Z,52.27
2023-03-06T18:18:30.236Z,47.67
2023-03-06T18:21:32.870Z,69.05
2023-03-06T18:24:36.597Z,92.38
2023-03-06T18:27:39.374Z,33.37
2023-03-06T18:30:42.521Z,23.57
2023-03-06T18:33:47.752Z,18.73
2023-03-06T18:36:52.507Z,17.65
2023-03-06T18:39:55.371Z,15.30
2023-03-06T18:42:58.588Z,14.63
2023-03-06T18:46:01.665Z,17.60
2023-03-06T18:49:05.604Z,27.90
2023-03-06T18:52:08.435Z,41.53
2023-03-06T18:55:11.368Z,39.90
2023-03-06T18:58:14.237Z,23.13
2023-03-06T19:01:17.478Z,23.00
2023-03-06T19:04:20.308Z,26.20
2023-03-06T19:07:23.918Z,27.40
2023-03-06T19:10:27.675Z,26.98
2023-03-06T19:13:31.108Z,32.07
2023-03-06T19:16:33.859Z,30.13
2023-03-06T19:19:36.670Z,31.35
2023-03-06T19:22:39.242Z,37.78
2023-03-06T19:25:41.835Z,37.20
2023-03-06T19:28:44.797Z,39.63
2023-03-06T19:31:47.655Z,44.83
2023-03-06T19:34:50.302Z,39.83
2023-03-06T19:37:53.581Z,37.00
2023-03-06T19:40:57.433Z,34.15
2023-03-06T19:44:02.698Z,30.93
2023-03-06T19:47:05.465Z,33.20
2023-03-06T19:50:09.020Z,38.65
2023-03-06T19:53:11.695Z,40.33
2023-03-06T19:56:23.615Z,36.70
2023-03-06T19:59:26.377Z,37.80
2023-03-06T20:02:29.253Z,37.70
2023-03-06T20:05:31.872Z,35.03
2023-03-06T20:08:35.388Z,32.65
2023-03-06T20:11:38.796Z,34.15
2023-03-06T20:14:41.821Z,33.53
2023-03-06T20:17:44.605Z,31.63
2023-03-06T20:21:01.299Z,30.08
2023-03-06T20:24:05.724Z,24.05
2023-03-06T20:27:08.543Z,28.50
2023-03-06T20:30:11.785Z,9.73
2023-03-06T20:33:15.482Z,29.23
2023-03-06T20:36:27.607Z,20.88
2023-03-06T20:39:30.480Z,22.10
2023-03-06T20:42:34.243Z,19.30
2023-03-06T20:45:37.093Z,17.87
2023-03-06T20:48:41.091Z,17.23
2023-03-06T20:51:44.333Z,16.13
2023-03-06T20:54:47.095Z,15.55
2023-03-06T20:57:50.981Z,15.70
2023-03-06T21:00:53.739Z,17.20
2023-03-06T21:03:57.701Z,17.67
2023-03-06T21:07:00.914Z,17.98
2023-03-06T21:10:03.767Z,18.48
2023-03-06T21:13:06.465Z,21.30
2023-03-06T21:16:14.879Z,23.63
2023-03-06T21:19:17.833Z,24.57
2023-03-06T21:22:20.358Z,23.55
2023-03-06T21:25:23.246Z,21.98
2023-03-06T21:28:26.007Z,23.55
2023-03-06T21:31:29.297Z,23.93
2023-03-06T21:34:31.891Z,24.67
2023-03-06T21:37:34.498Z,24.83
2023-03-06T21:40:37.119Z,24.80
2023-03-06T21:43:40.189Z,25.17
2023-03-06T21:46:42.769Z,23.87
2023-03-06T21:49:45.390Z,25.10
2023-03-06T21:52:48.001Z,26.75
2023-03-06T21:55:50.579Z,24.75
2023-03-06T21:58:53.411Z,25.05
2023-03-06T22:01:55.983Z,25.67
2023-03-06T22:04:58.597Z,27.00
2023-03-06T22:08:01.390Z,24.08
2023-03-06T22:11:12.813Z,24.60
2023-03-06T22:14:15.515Z,23.20
2023-03-06T22:17:18.362Z,24.50
2023-03-06T22:20:20.950Z,23.47
2023-03-06T22:23:23.730Z,23.25
2023-03-06T22:26:28.143Z,20.85
2023-03-06T22:29:30.652Z,22.85
2023-03-06T22:32:33.416Z,20.67
2023-03-06T22:35:36.132Z,21.60
2023-03-06T22:38:41.751Z,21.70
2023-03-06T22:41:44.378Z,22.13
2023-03-06T22:44:46.920Z,26.85
2023-03-06T22:47:50.799Z,25.67
2023-03-06T22:50:54.411Z,25.53
2023-03-06T22:53:57.088Z,28.88
2023-03-06T22:56:59.646Z,32.67
2023-03-06T23:00:02.280Z,31.65
2023-03-06T23:03:04.893Z,28.43
2023-03-06T23:06:11.970Z,28.23
2023-03-06T23:09:21.653Z,32.90
2023-03-06T23:12:44.188Z,28.88
2023-03-06T23:16:06.960Z,24.33
2023-03-06T23:19:28.142Z,23.77
2023-03-06T23:22:49.448Z,32.40
2023-03-06T23:26:15.987Z,27.63
2023-03-06T23:29:18.603Z,25.58
2023-03-06T23:32:21.469Z,24.42
2023-03-06T23:35:24.170Z,21.23
2023-03-06T23:38:27.311Z,21.13
2023-03-06T23:41:30.155Z,21.60
2023-03-06T23:44:34.983Z,21.27
2023-03-06T23:47:37.640Z,19.58
2023-03-06T23:50:40.513Z,21.27
2023-03-06T23:53:44.374Z,19.50
2023-03-06T23:56:46.864Z,20.98
2023-03-06T23:59:49.456Z,20.00
